sensor_id;sensor_type;location;lat;lon;timestamp;pressure;altitude;pressure_sealevel;temperature;humidity
29485;BME280;16440;59.494;17.978;2022-08-19T00:02:00;101204.47;;;19.16;100.00
29485;BME280;16440;59.494;17.978;2022-08-19T00:04:53;101199.87;;;19.17;100.00
29485;BME280;16440;59.494;17.978;2022-08-19T00:10:04;101197.97;;;19.19;100.00
29485;BME280;16440;59.494;17.978;2022-08-19T00:12:39;101197.88;;;19.20;100.00
29485;BME280;16440;59.494;17.978;2022-08-19T00:15:17;101195.97;;;19.22;100.00
29485;BME280;16440;59.494;17.978;2022-08-19T00:17:52;101194.13;;;19.23;100.00
29485;BME280;16440;59.494;17.978;2022-08-19T00:20:25;101192.34;;;19.22;100.00
29485;BME280;16440;59.494;17.978;2022-08-19T00:23:07;101195.09;;;19.22;100.00
29485;BME280;16440;59.494;17.978;2022-08-19T00:25:37;101200.53;;;19.22;100.00
29485;BME280;16440;59.494;17.978;2022-08-19T00:28:10;101208.66;;;19.23;100.00
29485;BME280;16440;59.494;17.978;2022-08-19T00:31:18;101185.59;;;19.12;100.00
29485;BME280;16440;59.494;17.978;2022-08-19T00:33:47;101203.97;;;19.26;100.00
29485;BME280;16440;59.494;17.978;2022-08-19T00:36:26;101205.69;;;19.28;100.00
29485;BME280;16440;59.494;17.978;2022-08-19T00:39:08;101203.75;;;19.30;100.00
29485;BME280;16440;59.494;17.978;2022-08-19T00:41:36;101199.09;;;19.32;100.00
29485;BME280;16440;59.494;17.978;2022-08-19T00:44:11;101204.50;;;19.34;100.00
29485;BME280;16440;59.494;17.978;2022-08-19T00:46:59;101201.66;;;19.35;100.00
29485;BME280;16440;59.494;17.978;2022-08-19T00:49:45;101187.94;;;19.37;100.00
29485;BME280;16440;59.494;17.978;2022-08-19T00:52:26;101191.44;;;19.39;100.00
29485;BME280;16440;59.494;17.978;2022-08-19T00:54:59;101184.97;;;19.41;100.00
29485;BME280;16440;59.494;17.978;2022-08-19T00:57:33;101185.84;;;19.42;100.00
29485;BME280;16440;59.494;17.978;2022-08-19T01:00:29;101182.09;;;19.44;100.00
29485;BME280;16440;59.494;17.978;2022-08-19T01:03:01;101187.41;;;19.47;100.00
29485;BME280;16440;59.494;17.978;2022-08-19T01:08:08;101189.97;;;19.50;100.00
29485;BME280;16440;59.494;17.978;2022-08-19T01:10:43;101188.94;;;19.53;100.00
29485;BME280;16440;59.494;17.978;2022-08-19T01:13:25;101193.34;;;19.55;100.00
29485;BME280;16440;59.494;17.978;2022-08-19T01:16:02;101191.44;;;19.57;100.00
29485;BME280;16440;59.494;17.978;2022-08-19T01:18:42;101184.91;;;19.60;100.00
29485;BME280;16440;59.494;17.978;2022-08-19T01:21:21;101187.56;;;19.61;100.00
29485;BME280;16440;59.494;17.978;2022-08-19T01:24:00;101188.47;;;19.62;100.00
29485;BME280;16440;59.494;17.978;2022-08-19T01:26:39;101181.94;;;19.64;100.00
29485;BME280;16440;59.494;17.978;2022-08-19T01:29:15;101167.31;;;19.65;100.00
29485;BME280;16440;59.494;17.978;2022-08-19T01:31:52;101177.19;;;19.68;100.00
29485;BME280;16440;59.494;17.978;2022-08-19T01:34:25;101175.25;;;19.70;100.00
29485;BME280;16440;59.494;17.978;2022-08-19T01:37:01;101174.19;;;19.73;100.00
29485;BME280;16440;59.494;17.978;2022-08-19T01:39:40;101170.50;;;19.74;100.00
29485;BME280;16440;59.494;17.978;2022-08-19T01:42:20;101172.28;;;19.75;100.00
29485;BME280;16440;59.494;17.978;2022-08-19T01:44:52;101173.09;;;19.77;100.00
29485;BME280;16440;59.494;17.978;2022-08-19T01:47:23;101175.81;;;19.77;100.00
29485;BME280;16440;59.494;17.978;2022-08-19T01:49:56;101172.09;;;19.78;100.00
29485;BME280;16440;59.494;17.978;2022-08-19T01:52:36;101173.88;;;19.79;100.00
29485;BME280;16440;59.494;17.978;2022-08-19T01:55:09;101177.41;;;19.81;100.00
29485;BME280;16440;59.494;17.978;2022-08-19T01:57:49;101174.69;;;19.81;100.00
29485;BME280;16440;59.494;17.978;2022-08-19T02:00:23;101174.56;;;19.82;100.00
29485;BME280;16440;59.494;17.978;2022-08-19T02:05:19;101182.53;;;19.87;100.00
29485;BME280;16440;59.494;17.978;2022-08-19T02:07:54;101174.25;;;19.88;100.00
29485;BME280;16440;59.494;17.978;2022-08-19T02:10:26;101181.50;;;19.89;100.00
29485;BME280;16440;59.494;17.978;2022-08-19T02:13:02;101180.41;;;19.92;100.00
29485;BME280;16440;59.494;17.978;2022-08-19T02:15:45;101177.69;;;19.92;100.00
29485;BME280;16440;59.494;17.978;2022-08-19T02:18:13;101173.13;;;19.92;100.00
29485;BME280;16440;59.494;17.978;2022-08-19T02:20:54;101168.53;;;19.93;100.00
29485;BME280;16440;59.494;17.978;2022-08-19T02:23:47;101164.91;;;19.92;100.00
29485;BME280;16440;59.494;17.978;2022-08-19T02:26:18;101164.84;;;19.94;100.00
29485;BME280;16440;59.494;17.978;2022-08-19T02:28:55;101163.88;;;19.95;100.00
29485;BME280;16440;59.494;17.978;2022-08-19T02:31:27;101165.72;;;19.94;100.00
29485;BME280;16440;59.494;17.978;2022-08-19T02:33:58;101165.63;;;19.96;100.00
29485;BME280;16440;59.494;17.978;2022-08-19T02:36:27;101165.63;;;19.96;100.00
29485;BME280;16440;59.494;17.978;2022-08-19T02:39:00;101166.50;;;19.96;100.00
29485;BME280;16440;59.494;17.978;2022-08-19T02:44:02;101163.78;;;19.96;100.00
29485;BME280;16440;59.494;17.978;2022-08-19T02:46:33;101168.28;;;19.97;100.00
29485;BME280;16440;59.494;17.978;2022-08-19T02:49:03;101161.03;;;19.96;100.00
29485;BME280;16440;59.494;17.978;2022-08-19T02:51:34;101162.81;;;19.97;100.00
29485;BME280;16440;59.494;17.978;2022-08-19T02:54:04;101163.63;;;19.99;100.00
29485;BME280;16440;59.494;17.978;2022-08-19T02:56:38;101159.06;;;20.00;100.00
29485;BME280;16440;59.494;17.978;2022-08-19T02:59:13;101157.19;;;20.00;100.00
29485;BME280;16440;59.494;17.978;2022-08-19T03:01:42;101164.41;;;20.01;100.00
29485;BME280;16440;59.494;17.978;2022-08-19T03:04:12;101158.06;;;20.01;100.00
29485;BME280;16440;59.494;17.978;2022-08-19T03:06:46;101161.66;;;20.01;100.00
29485;BME280;16440;59.494;17.978;2022-08-19T03:09:19;101158.06;;;20.01;100.00
29485;BME280;16440;59.494;17.978;2022-08-19T03:11:53;101155.31;;;20.01;100.00
29485;BME280;16440;59.494;17.978;2022-08-19T03:14:21;101160.72;;;20.02;100.00
29485;BME280;16440;59.494;17.978;2022-08-19T03:16:52;101162.56;;;20.02;100.00
29485;BME280;16440;59.494;17.978;2022-08-19T03:22:02;101176.06;;;20.05;100.00
29485;BME280;16440;59.494;17.978;2022-08-19T03:24:31;101176.06;;;20.05;100.00
29485;BME280;16440;59.494;17.978;2022-08-19T03:27:02;101179.59;;;20.07;100.00
29485;BME280;16440;59.494;17.978;2022-08-19T03:29:32;101179.59;;;20.07;100.00
29485;BME280;16440;59.494;17.978;2022-08-19T03:32:10;101176.84;;;20.07;100.00
29485;BME280;16440;59.494;17.978;2022-08-19T03:34:38;101170.41;;;20.08;100.00
29485;BME280;16440;59.494;17.978;2022-08-19T03:37:11;101175.87;;;20.08;100.00
29485;BME280;16440;59.494;17.978;2022-08-19T03:39:56;101178.53;;;20.09;100.00
29485;BME280;16440;59.494;17.978;2022-08-19T03:42:26;101184.88;;;20.10;100.00
29485;BME280;16440;59.494;17.978;2022-08-19T03:44:55;101191.22;;;20.10;100.00
29485;BME280;16440;59.494;17.978;2022-08-19T03:50:00;101183.75;;;20.14;100.00
29485;BME280;16440;59.494;17.978;2022-08-19T03:52:33;101190.88;;;20.17;100.00
29485;BME280;16440;59.494;17.978;2022-08-19T03:55:04;101188.06;;;20.18;100.00
29485;BME280;16440;59.494;17.978;2022-08-19T03:57:36;101191.78;;;20.17;100.00
29485;BME280;16440;59.494;17.978;2022-08-19T04:00:05;101182.59;;;20.18;100.00
29485;BME280;16440;59.494;17.978;2022-08-19T04:05:00;101189.66;;;20.22;100.00
29485;BME280;16440;59.494;17.978;2022-08-19T04:10:05;101188.59;;;20.25;100.00
29485;BME280;16440;59.494;17.978;2022-08-19T04:12:38;101192.06;;;20.28;100.00
29485;BME280;16440;59.494;17.978;2022-08-19T04:15:11;101194.69;;;20.30;100.00
29485;BME280;16440;59.494;17.978;2022-08-19T04:20:08;101185.28;;;20.35;100.00
29485;BME280;16440;59.494;17.978;2022-08-19T04:22:42;101183.38;;;20.37;100.00
29485;BME280;16440;59.494;17.978;2022-08-19T04:25:14;101186.88;;;20.39;100.00
29485;BME280;16440;59.494;17.978;2022-08-19T04:27:44;101190.59;;;20.38;100.00
29485;BME280;16440;59.494;17.978;2022-08-19T04:30:15;101191.38;;;20.40;100.00
29485;BME280;16440;59.494;17.978;2022-08-19T04:32:48;101200.28;;;20.44;100.00
29485;BME280;16440;59.494;17.978;2022-08-19T04:35:19;101199.41;;;20.43;100.00
29485;BME280;16440;59.494;17.978;2022-08-19T04:37:48;101206.50;;;20.47;100.00
29485;BME280;16440;59.494;17.978;2022-08-19T04:40:30;101204.53;;;20.49;100.00
29485;BME280;16440;59.494;17.978;2022-08-19T04:43:02;101210.88;;;20.50;100.00
29485;BME280;16440;59.494;17.978;2022-08-19T04:45:30;101211.78;;;20.50;100.00
29485;BME280;16440;59.494;17.978;2022-08-19T04:48:00;101213.53;;;20.51;100.00
29485;BME280;16440;59.494;17.978;2022-08-19T04:50:32;101217.06;;;20.53;100.00
29485;BME280;16440;59.494;17.978;2022-08-19T04:53:21;101213.34;;;20.55;100.00
29485;BME280;16440;59.494;17.978;2022-08-19T05:07:14;101194.50;;;20.66;100.00
29485;BME280;16440;59.494;17.978;2022-08-19T05:10:25;101188.75;;;20.70;100.00
29485;BME280;16440;59.494;17.978;2022-08-19T05:13:21;101186.72;;;20.74;100.00
29485;BME280;16440;59.494;17.978;2022-08-19T05:16:09;101186.53;;;20.77;100.00
29485;BME280;16440;59.494;17.978;2022-08-19T05:18:57;101185.47;;;20.79;100.00
29485;BME280;16440;59.494;17.978;2022-08-19T05:21:51;101176.03;;;20.85;100.00
29485;BME280;16440;59.494;17.978;2022-08-19T05:24:53;101178.38;;;20.91;100.00
29485;BME280;16440;59.494;17.978;2022-08-19T05:30:14;101186.16;;;20.99;100.00
29485;BME280;16440;59.494;17.978;2022-08-19T05:33:01;101179.59;;;21.01;100.00
29485;BME280;16440;59.494;17.978;2022-08-19T05:35:43;101176.50;;;21.07;100.00
29485;BME280;16440;59.494;17.978;2022-08-19T05:38:25;101178.00;;;21.13;100.00
29485;BME280;16440;59.494;17.978;2022-08-19T06:03:32;101174.22;;;21.45;100.00
29485;BME280;16440;59.494;17.978;2022-08-19T09:21:07;101164.38;;;28.17;100.00
29485;BME280;16440;59.494;17.978;2022-08-19T09:23:59;101161.84;;;28.14;100.00
29485;BME280;16440;59.494;17.978;2022-08-19T09:37:28;101166.19;;;28.38;100.00
29485;BME280;16440;59.494;17.978;2022-08-19T09:40:02;101166.13;;;28.58;100.00
29485;BME280;16440;59.494;17.978;2022-08-19T09:45:03;101166.25;;;28.57;100.00
29485;BME280;16440;59.494;17.978;2022-08-19T09:47:50;101165.41;;;28.66;100.00
29485;BME280;16440;59.494;17.978;2022-08-19T09:53:03;101162.28;;;28.90;100.00
29485;BME280;16440;59.494;17.978;2022-08-19T09:58:10;101166.38;;;28.95;100.00
29485;BME280;16440;59.494;17.978;2022-08-19T10:00:53;101157.38;;;29.03;100.00
29485;BME280;16440;59.494;17.978;2022-08-19T10:03:22;101160.41;;;29.09;94.16
29485;BME280;16440;59.494;17.978;2022-08-19T10:05:52;101158.97;;;29.15;95.56
29485;BME280;16440;59.494;17.978;2022-08-19T10:08:24;101156.78;;;29.19;90.43
29485;BME280;16440;59.494;17.978;2022-08-19T10:10:56;101155.75;;;29.20;90.67
29485;BME280;16440;59.494;17.978;2022-08-19T10:13:29;101152.41;;;29.26;88.64
29485;BME280;16440;59.494;17.978;2022-08-19T10:16:04;101148.78;;;29.35;91.54
29485;BME280;16440;59.494;17.978;2022-08-19T10:18:39;101154.03;;;29.38;84.14
29485;BME280;16440;59.494;17.978;2022-08-19T10:21:11;101143.38;;;29.43;84.64
29485;BME280;16440;59.494;17.978;2022-08-19T10:23:43;101137.84;;;29.33;83.79
29485;BME280;16440;59.494;17.978;2022-08-19T10:26:16;101139.03;;;29.40;86.15
29485;BME280;16440;59.494;17.978;2022-08-19T10:28:47;101138.13;;;29.49;83.82
29485;BME280;16440;59.494;17.978;2022-08-19T10:31:22;101137.69;;;29.54;87.35
29485;BME280;16440;59.494;17.978;2022-08-19T10:33:58;101135.03;;;29.62;84.39
29485;BME280;16440;59.494;17.978;2022-08-19T10:36:37;101133.44;;;29.69;79.39
29485;BME280;16440;59.494;17.978;2022-08-19T10:39:21;101136.88;;;29.81;80.68
29485;BME280;16440;59.494;17.978;2022-08-19T10:41:55;101141.97;;;29.85;77.16
29485;BME280;16440;59.494;17.978;2022-08-19T10:44:31;101132.78;;;29.94;81.16
29485;BME280;16440;59.494;17.978;2022-08-19T10:47:00;101129.41;;;30.01;80.83
29485;BME280;16440;59.494;17.978;2022-08-19T10:49:31;101127.81;;;30.08;80.04
29485;BME280;16440;59.494;17.978;2022-08-19T10:52:02;101137.84;;;30.09;77.17
29485;BME280;16440;59.494;17.978;2022-08-19T10:54:49;101136.22;;;30.16;72.88
29485;BME280;16440;59.494;17.978;2022-08-19T10:57:36;101134.16;;;30.18;69.70
29485;BME280;16440;59.494;17.978;2022-08-19T11:00:15;101129.38;;;30.10;70.81
29485;BME280;16440;59.494;17.978;2022-08-19T11:02:45;101131.28;;;30.10;71.23
29485;BME280;16440;59.494;17.978;2022-08-19T11:05:14;101128.59;;;30.18;74.37
29485;BME280;16440;59.494;17.978;2022-08-19T11:07:44;101127.12;;;30.23;75.58
29485;BME280;16440;59.494;17.978;2022-08-19T11:10:13;101121.84;;;30.30;69.60
29485;BME280;16440;59.494;17.978;2022-08-19T11:12:50;101114.22;;;30.32;71.26
29485;BME280;16440;59.494;17.978;2022-08-19T11:15:21;101112.75;;;30.37;67.15
29485;BME280;16440;59.494;17.978;2022-08-19T11:17:53;101111.69;;;30.48;73.03
29485;BME280;16440;59.494;17.978;2022-08-19T11:23:03;101109.06;;;30.74;64.79
29485;BME280;16440;59.494;17.978;2022-08-19T11:25:32;101108.34;;;30.72;66.01
29485;BME280;16440;59.494;17.978;2022-08-19T11:28:02;101106.03;;;30.67;67.23
29485;BME280;16440;59.494;17.978;2022-08-19T11:30:31;101106.31;;;30.37;65.19
29485;BME280;16440;59.494;17.978;2022-08-19T11:32:59;101109.81;;;30.12;69.46
29485;BME280;16440;59.494;17.978;2022-08-19T11:35:33;101101.56;;;29.83;71.20
29485;BME280;16440;59.494;17.978;2022-08-19T11:38:00;101109.00;;;29.82;73.38
29485;BME280;16440;59.494;17.978;2022-08-19T11:40:31;101103.38;;;30.11;74.43
29485;BME280;16440;59.494;17.978;2022-08-19T11:43:02;101104.81;;;30.42;69.91
29485;BME280;16440;59.494;17.978;2022-08-19T11:45:33;101100.69;;;30.56;67.46
29485;BME280;16440;59.494;17.978;2022-08-19T11:48:03;101091.25;;;30.84;67.66
29485;BME280;16440;59.494;17.978;2022-08-19T11:53:10;101096.47;;;30.52;63.38
29485;BME280;16440;59.494;17.978;2022-08-19T11:55:41;101087.19;;;30.34;66.67
29485;BME280;16440;59.494;17.978;2022-08-19T11:58:15;101101.78;;;30.46;66.98
29485;BME280;16440;59.494;17.978;2022-08-19T12:00:44;101093.63;;;30.62;65.68
29485;BME280;16440;59.494;17.978;2022-08-19T12:03:15;101096.41;;;30.79;64.27
29485;BME280;16440;59.494;17.978;2022-08-19T12:05:48;101099.59;;;30.84;62.33
29485;BME280;16440;59.494;17.978;2022-08-19T12:08:21;101093.34;;;30.82;61.36
29485;BME280;16440;59.494;17.978;2022-08-19T12:10:49;101096.94;;;30.93;64.41
29485;BME280;16440;59.494;17.978;2022-08-19T12:16:11;101086.22;;;31.15;57.54
29485;BME280;16440;59.494;17.978;2022-08-19T12:18:56;101090.72;;;30.99;57.58
29485;BME280;16440;59.494;17.978;2022-08-19T12:21:38;101080.87;;;30.87;58.46
29485;BME280;16440;59.494;17.978;2022-08-19T12:24:10;101092.00;;;30.87;58.90
29485;BME280;16440;59.494;17.978;2022-08-19T12:26:38;101083.66;;;30.87;56.50
29485;BME280;16440;59.494;17.978;2022-08-19T12:29:31;101088.34;;;30.86;57.86
29485;BME280;16440;59.494;17.978;2022-08-19T12:32:06;101088.19;;;30.88;56.55
29485;BME280;16440;59.494;17.978;2022-08-19T12:34:46;101089.06;;;30.88;56.41
29485;BME280;16440;59.494;17.978;2022-08-19T12:37:20;100849.94;;;29.38;57.51
29485;BME280;16440;59.494;17.978;2022-08-19T12:39:51;101089.28;;;30.95;56.47
29485;BME280;16440;59.494;17.978;2022-08-19T12:42:21;101092.47;;;31.00;54.65
29485;BME280;16440;59.494;17.978;2022-08-19T12:44:53;101089.00;;;30.98;54.46
29485;BME280;16440;59.494;17.978;2022-08-19T12:47:24;101087.78;;;31.00;53.56
29485;BME280;16440;59.494;17.978;2022-08-19T12:50:01;101084.87;;;31.02;55.15
29485;BME280;16440;59.494;17.978;2022-08-19T12:52:38;101084.56;;;31.05;53.65
29485;BME280;16440;59.494;17.978;2022-08-19T12:55:09;101091.00;;;31.05;54.84
29485;BME280;16440;59.494;17.978;2022-08-19T12:57:45;101081.34;;;31.00;55.36
29485;BME280;16440;59.494;17.978;2022-08-19T13:00:22;101091.88;;;31.06;55.65
29485;BME280;16440;59.494;17.978;2022-08-19T13:02:53;101085.09;;;31.08;54.33
29485;BME280;16440;59.494;17.978;2022-08-19T13:05:33;101092.91;;;31.05;54.49
29485;BME280;16440;59.494;17.978;2022-08-19T13:08:17;101074.37;;;30.96;53.14
29485;BME280;16440;59.494;17.978;2022-08-19T13:10:47;101072.53;;;30.87;54.63
29485;BME280;16440;59.494;17.978;2022-08-19T13:13:16;101068.34;;;30.82;54.25
29485;BME280;16440;59.494;17.978;2022-08-19T13:15:44;101077.44;;;30.57;54.82
29485;BME280;16440;59.494;17.978;2022-08-19T13:18:18;101068.00;;;30.50;57.41
29485;BME280;16440;59.494;17.978;2022-08-19T13:20:49;101055.62;;;30.62;58.61
29485;BME280;16440;59.494;17.978;2022-08-19T13:23:20;101057.03;;;30.66;54.92
29485;BME280;16440;59.494;17.978;2022-08-19T13:25:58;101055.13;;;30.67;55.14
29485;BME280;16440;59.494;17.978;2022-08-19T13:30:53;101054.91;;;30.60;56.06
29485;BME280;16440;59.494;17.978;2022-08-19T13:33:42;101060.34;;;30.52;57.04
29485;BME280;16440;59.494;17.978;2022-08-19T13:36:15;101052.03;;;30.52;56.58
29485;BME280;16440;59.494;17.978;2022-08-19T13:38:43;101063.87;;;30.54;55.40
29485;BME280;16440;59.494;17.978;2022-08-19T13:41:19;101056.91;;;30.40;54.15
29485;BME280;16440;59.494;17.978;2022-08-19T13:43:55;101061.38;;;30.24;56.21
29485;BME280;16440;59.494;17.978;2022-08-19T13:46:26;101062.94;;;29.99;57.51
29485;BME280;16440;59.494;17.978;2022-08-19T13:48:57;101059.53;;;29.78;57.92
29485;BME280;16440;59.494;17.978;2022-08-19T13:51:30;101059.00;;;29.55;60.19
29485;BME280;16440;59.494;17.978;2022-08-19T13:54:09;101057.72;;;29.40;60.94
29485;BME280;16440;59.494;17.978;2022-08-19T13:56:45;101055.53;;;29.34;62.20
29485;BME280;16440;59.494;17.978;2022-08-19T13:59:17;101049.09;;;29.24;63.57
29485;BME280;16440;59.494;17.978;2022-08-19T14:01:46;101045.34;;;29.15;66.04
29485;BME280;16440;59.494;17.978;2022-08-19T14:04:16;101050.00;;;29.05;66.46
29485;BME280;16440;59.494;17.978;2022-08-19T14:06:53;101051.91;;;28.95;67.17
29485;BME280;16440;59.494;17.978;2022-08-19T14:09:25;101054.09;;;28.91;69.71
29485;BME280;16440;59.494;17.978;2022-08-19T14:11:53;101054.41;;;28.88;71.19
29485;BME280;16440;59.494;17.978;2022-08-19T14:14:28;101047.97;;;28.97;73.12
29485;BME280;16440;59.494;17.978;2022-08-19T14:16:59;101046.34;;;29.14;69.52
29485;BME280;16440;59.494;17.978;2022-08-19T14:19:29;101038.91;;;29.34;68.68
29485;BME280;16440;59.494;17.978;2022-08-19T14:21:59;101050.09;;;29.51;66.08
29485;BME280;16440;59.494;17.978;2022-08-19T14:24:27;101044.97;;;29.56;66.51
29485;BME280;16440;59.494;17.978;2022-08-19T14:27:04;101042.06;;;29.58;65.37
29485;BME280;16440;59.494;17.978;2022-08-19T14:29:50;101039.28;;;29.58;64.85
29485;BME280;16440;59.494;17.978;2022-08-19T14:32:25;101037.31;;;29.41;64.87
29485;BME280;16440;59.494;17.978;2022-08-19T14:35:04;101044.56;;;29.42;65.26
29485;BME280;16440;59.494;17.978;2022-08-19T14:37:36;101045.75;;;29.49;64.26
29485;BME280;16440;59.494;17.978;2022-08-19T14:40:17;101046.13;;;29.64;64.80
29485;BME280;16440;59.494;17.978;2022-08-19T14:42:49;101044.91;;;29.76;61.95
29485;BME280;16440;59.494;17.978;2022-08-19T14:45:20;101046.66;;;29.77;61.38
29485;BME280;16440;59.494;17.978;2022-08-19T14:48:14;101048.13;;;29.71;61.04
29485;BME280;16440;59.494;17.978;2022-08-19T14:50:56;101049.63;;;29.66;62.93
29485;BME280;16440;59.494;17.978;2022-08-19T14:53:31;101047.78;;;29.47;63.23
29485;BME280;16440;59.494;17.978;2022-08-19T14:56:06;101052.03;;;29.41;65.95
29485;BME280;16440;59.494;17.978;2022-08-19T14:58:37;101054.97;;;29.40;66.61
29485;BME280;16440;59.494;17.978;2022-08-19T15:01:09;101057.87;;;29.38;65.83
29485;BME280;16440;59.494;17.978;2022-08-19T15:03:53;101058.16;;;29.26;66.55
29485;BME280;16440;59.494;17.978;2022-08-19T15:06:25;101053.78;;;29.23;68.72
29485;BME280;16440;59.494;17.978;2022-08-19T15:09:04;101046.94;;;29.18;67.85
29485;BME280;16440;59.494;17.978;2022-08-19T15:11:33;101050.00;;;29.14;68.24
29485;BME280;16440;59.494;17.978;2022-08-19T15:14:02;101048.25;;;29.13;69.39
29485;BME280;16440;59.494;17.978;2022-08-19T15:16:33;101052.19;;;29.11;70.80
29485;BME280;16440;59.494;17.978;2022-08-19T15:19:00;101055.28;;;29.08;70.95
29485;BME280;16440;59.494;17.978;2022-08-19T15:21:38;101053.06;;;29.11;70.85
29485;BME280;16440;59.494;17.978;2022-08-19T15:24:25;101043.44;;;29.16;68.82
29485;BME280;16440;59.494;17.978;2022-08-19T15:26:57;101042.69;;;29.13;66.82
29485;BME280;16440;59.494;17.978;2022-08-19T15:29:28;101040.66;;;29.16;66.95
29485;BME280;16440;59.494;17.978;2022-08-19T15:31:56;101036.56;;;29.20;65.75
29485;BME280;16440;59.494;17.978;2022-08-19T15:34:27;101036.56;;;29.29;64.37
29485;BME280;16440;59.494;17.978;2022-08-19T15:36:58;101044.47;;;29.34;60.27
29485;BME280;16440;59.494;17.978;2022-08-19T15:39:32;101035.12;;;29.35;60.20
29485;BME280;16440;59.494;17.978;2022-08-19T15:42:04;101044.47;;;29.34;59.43
29485;BME280;16440;59.494;17.978;2022-08-19T15:44:34;101038.91;;;29.34;60.07
29485;BME280;16440;59.494;17.978;2022-08-19T15:47:03;101045.00;;;29.28;57.65
29485;BME280;16440;59.494;17.978;2022-08-19T15:49:31;101041.81;;;29.23;57.48
29485;BME280;16440;59.494;17.978;2022-08-19T15:52:03;101042.41;;;29.17;57.69
29485;BME280;16440;59.494;17.978;2022-08-19T15:57:01;101036.59;;;29.10;60.09
29485;BME280;16440;59.494;17.978;2022-08-19T15:59:49;101041.84;;;29.03;60.18
29485;BME280;16440;59.494;17.978;2022-08-19T16:02:36;101050.31;;;28.92;60.40
29485;BME280;16440;59.494;17.978;2022-08-19T16:05:33;101050.31;;;28.73;62.62
29485;BME280;16440;59.494;17.978;2022-08-19T16:08:03;101045.28;;;28.57;66.14
29485;BME280;16440;59.494;17.978;2022-08-19T16:10:48;101047.59;;;28.43;68.14
29485;BME280;16440;59.494;17.978;2022-08-19T16:13:17;101052.97;;;28.35;70.33
29485;BME280;16440;59.494;17.978;2022-08-19T16:15:45;101055.84;;;28.23;73.86
29485;BME280;16440;59.494;17.978;2022-08-19T16:18:14;101047.69;;;28.12;75.50
29485;BME280;16440;59.494;17.978;2022-08-19T16:20:45;101054.03;;;28.03;78.55
29485;BME280;16440;59.494;17.978;2022-08-19T16:23:18;101056.34;;;27.98;80.89
29485;BME280;16440;59.494;17.978;2022-08-19T16:25:54;101048.31;;;27.95;82.80
29485;BME280;16440;59.494;17.978;2022-08-19T16:28:31;101050.94;;;27.97;86.28
29485;BME280;16440;59.494;17.978;2022-08-19T16:31:00;101047.75;;;28.01;87.99
29485;BME280;16440;59.494;17.978;2022-08-19T16:33:30;101042.81;;;28.05;89.95
29485;BME280;16440;59.494;17.978;2022-08-19T16:36:03;101049.97;;;28.07;91.70
29485;BME280;16440;59.494;17.978;2022-08-19T16:41:08;101047.53;;;28.14;94.04
29485;BME280;16440;59.494;17.978;2022-08-19T16:43:37;101048.69;;;28.11;93.92
29485;BME280;16440;59.494;17.978;2022-08-19T16:46:06;101044.44;;;28.07;95.04
29485;BME280;16440;59.494;17.978;2022-08-19T16:51:02;101049.75;;;27.99;95.63
29485;BME280;16440;59.494;17.978;2022-08-19T16:53:40;101047.44;;;27.95;96.85
29485;BME280;16440;59.494;17.978;2022-08-19T16:56:09;101050.78;;;27.89;97.30
29485;BME280;16440;59.494;17.978;2022-08-19T16:58:41;101045.91;;;27.81;97.26
29485;BME280;16440;59.494;17.978;2022-08-19T17:01:16;101045.62;;;27.74;98.53
29485;BME280;16440;59.494;17.978;2022-08-19T17:03:47;101050.81;;;27.68;99.72
29485;BME280;16440;59.494;17.978;2022-08-19T17:06:21;101045.09;;;27.60;100.00
29485;BME280;16440;59.494;17.978;2022-08-19T17:08:57;101050.28;;;27.53;100.00
29485;BME280;16440;59.494;17.978;2022-08-19T17:11:29;101046.31;;;27.46;100.00
29485;BME280;16440;59.494;17.978;2022-08-19T17:14:01;101045.22;;;27.37;100.00
29485;BME280;16440;59.494;17.978;2022-08-19T17:16:34;101041.38;;;27.29;100.00
29485;BME280;16440;59.494;17.978;2022-08-19T17:19:08;101037.66;;;27.19;100.00
29485;BME280;16440;59.494;17.978;2022-08-19T17:21:41;101044.16;;;27.08;100.00
29485;BME280;16440;59.494;17.978;2022-08-19T17:24:12;101047.72;;;26.99;100.00
29485;BME280;16440;59.494;17.978;2022-08-19T17:26:43;101055.78;;;26.91;100.00
29485;BME280;16440;59.494;17.978;2022-08-19T17:29:17;101046.25;;;26.84;100.00
29485;BME280;16440;59.494;17.978;2022-08-19T17:31:49;101042.25;;;26.77;100.00
29485;BME280;16440;59.494;17.978;2022-08-19T17:34:24;101040.16;;;26.69;100.00
29485;BME280;16440;59.494;17.978;2022-08-19T17:36:58;101044.44;;;26.62;100.00
29485;BME280;16440;59.494;17.978;2022-08-19T17:39:30;101042.34;;;26.54;100.00
29485;BME280;16440;59.494;17.978;2022-08-19T17:42:01;101051.16;;;26.48;100.00
29485;BME280;16440;59.494;17.978;2022-08-19T17:44:35;101049.16;;;26.39;100.00
29485;BME280;16440;59.494;17.978;2022-08-19T17:47:13;101054.59;;;26.30;100.00
29485;BME280;16440;59.494;17.978;2022-08-19T17:49:53;101045.19;;;26.21;100.00
29485;BME280;16440;59.494;17.978;2022-08-19T17:52:24;101042.28;;;26.11;100.00
29485;BME280;16440;59.494;17.978;2022-08-19T17:54:52;101042.06;;;26.03;100.00
29485;BME280;16440;59.494;17.978;2022-08-19T17:57:23;101052.97;;;25.94;100.00
29485;BME280;16440;59.494;17.978;2022-08-19T17:59:54;101040.81;;;25.85;100.00
29485;BME280;16440;59.494;17.978;2022-08-19T18:02:26;101037.69;;;25.79;100.00
29485;BME280;16440;59.494;17.978;2022-08-19T18:05:24;101043.69;;;25.73;100.00